createdAt,value
2017-05-28T00:02:05.433Z,51.90
2017-05-28T00:04:32.372Z,51.90
2017-05-28T00:06:59.323Z,52.20
2017-05-28T00:09:26.229Z,52.30
2017-05-28T00:11:53.144Z,52.30
2017-05-28T00:14:20.098Z,52.60
2017-05-28T00:16:47.080Z,52.60
2017-05-28T00:19:13.993Z,53.20
2017-05-28T00:21:40.908Z,53.50
2017-05-28T00:24:07.868Z,53.30
2017-05-28T00:26:34.786Z,53.20
2017-05-28T00:29:01.691Z,53.20
2017-05-28T00:31:28.616Z,53.30
2017-05-28T00:33:55.556Z,53.20
2017-05-28T00:36:22.480Z,53.70
2017-05-28T00:38:49.404Z,53.50
2017-05-28T00:41:16.340Z,53.60
2017-05-28T00:43:43.313Z,53.70
2017-05-28T00:46:10.215Z,54.00
2017-05-28T00:48:37.160Z,53.90
2017-05-28T00:51:04.076Z,53.80
2017-05-28T00:53:30.992Z,54.10
2017-05-28T00:55:57.955Z,54.40
2017-05-28T00:58:24.863Z,54.70
2017-05-28T01:00:51.781Z,54.80
2017-05-28T01:03:18.723Z,55.00
2017-05-28T01:05:45.631Z,54.90
2017-05-28T01:08:12.534Z,54.90
2017-05-28T01:10:39.496Z,55.20
2017-05-28T01:13:06.408Z,55.50
2017-05-28T01:15:33.329Z,54.70
2017-05-28T01:18:00.293Z,54.50
2017-05-28T01:20:27.220Z,54.60
2017-05-28T01:22:54.136Z,55.10
2017-05-28T01:25:21.107Z,55.50
2017-05-28T01:27:48.039Z,55.60
2017-05-28T01:30:14.971Z,55.90
2017-05-28T01:32:41.965Z,55.80
2017-05-28T01:35:08.913Z,56.00
2017-05-28T01:37:35.862Z,56.80
2017-05-28T01:40:02.824Z,57.10
2017-05-28T01:42:29.818Z,57.60
2017-05-28T01:44:56.759Z,57.80
2017-05-28T01:47:23.695Z,57.80
2017-05-28T01:49:50.709Z,58.10
2017-05-28T01:52:17.644Z,58.40
2017-05-28T01:54:44.544Z,58.20
2017-05-28T01:57:11.484Z,58.20
2017-05-28T01:59:38.392Z,58.30
2017-05-28T02:02:05.336Z,58.70
2017-05-28T02:04:32.244Z,58.60
2017-05-28T02:06:59.160Z,59.10
2017-05-28T02:09:26.152Z,59.10
2017-05-28T02:11:53.103Z,59.10
2017-05-28T02:14:20.016Z,59.00
2017-05-28T02:16:46.965Z,59.30
2017-05-28T02:19:13.877Z,59.40
2017-05-28T02:21:40.788Z,59.60
2017-05-28T02:24:07.719Z,59.90
2017-05-28T02:26:34.632Z,59.80
2017-05-28T02:29:01.536Z,60.20
2017-05-28T02:31:28.493Z,60.60
2017-05-28T02:33:55.413Z,61.20
2017-05-28T02:36:22.318Z,61.40
2017-05-28T02:38:49.480Z,61.60
2017-05-28T02:41:16.400Z,62.20
2017-05-28T02:43:43.312Z,62.30
2017-05-28T02:46:10.269Z,62.90
2017-05-28T02:48:37.175Z,63.30
2017-05-28T02:51:04.144Z,64.00
2017-05-28T02:53:31.077Z,63.80
2017-05-28T02:55:57.992Z,63.90
2017-05-28T02:58:24.961Z,63.60
2017-05-28T03:00:51.907Z,63.60
2017-05-28T03:03:18.820Z,63.80
2017-05-28T03:05:45.764Z,64.00
2017-05-28T03:08:12.676Z,64.50
2017-05-28T03:10:39.613Z,65.30
2017-05-28T03:13:06.556Z,65.70
2017-05-28T03:15:33.459Z,64.50
2017-05-28T03:18:00.376Z,65.30
2017-05-28T03:20:27.330Z,66.10
2017-05-28T03:22:54.241Z,66.80
2017-05-28T03:25:21.253Z,67.00
2017-05-28T03:27:48.167Z,67.50
2017-05-28T03:30:15.072Z,67.50
2017-05-28T03:32:42.021Z,67.50
2017-05-28T03:35:08.936Z,67.10
2017-05-28T03:37:35.845Z,66.90
2017-05-28T03:40:02.787Z,66.70
2017-05-28T03:42:29.696Z,65.90
2017-05-28T03:44:56.636Z,66.00
2017-05-28T03:47:23.597Z,65.70
2017-05-28T03:49:50.499Z,65.50
2017-05-28T03:52:17.413Z,65.40
2017-05-28T03:54:44.362Z,65.90
2017-05-28T03:57:11.289Z,67.20
2017-05-28T03:59:38.196Z,67.60
2017-05-28T04:02:06.883Z,67.10
2017-05-28T04:04:33.798Z,66.70
2017-05-28T04:07:00.708Z,66.40
2017-05-28T04:09:27.667Z,66.10
2017-05-28T04:11:54.636Z,65.80
2017-05-28T04:14:21.540Z,65.50
2017-05-28T04:16:48.471Z,65.30
2017-05-28T04:19:15.431Z,65.70
2017-05-28T04:21:42.343Z,65.70
2017-05-28T04:24:09.268Z,65.70
2017-05-28T04:26:36.209Z,65.40
2017-05-28T04:29:03.134Z,64.60
2017-05-28T04:31:30.048Z,64.00
2017-05-28T04:33:57.028Z,63.40
2017-05-28T04:36:23.932Z,62.30
2017-05-28T04:38:50.833Z,61.60
2017-05-28T04:41:17.780Z,61.60
2017-05-28T04:43:44.687Z,60.80
2017-05-28T04:46:11.613Z,60.90
2017-05-28T04:48:38.552Z,61.30
2017-05-28T04:51:05.464Z,61.60
2017-05-28T04:53:32.380Z,60.60
2017-05-28T04:55:59.323Z,60.50
2017-05-28T04:58:26.230Z,60.00
2017-05-28T05:00:53.156Z,60.00
2017-05-28T05:03:20.116Z,59.90
2017-05-28T05:05:47.020Z,60.20
2017-05-28T05:20:58.876Z,58.80
2017-05-28T05:23:25.800Z,58.80
2017-05-28T05:25:52.726Z,58.90
2017-05-28T05:28:19.697Z,58.40
2017-05-28T05:30:46.637Z,58.20
2017-05-28T05:33:13.596Z,58.30
2017-05-28T05:35:40.569Z,58.00
2017-05-28T05:38:07.503Z,56.70
2017-05-28T05:40:34.516Z,56.60
2017-05-28T05:43:01.541Z,56.70
2017-05-28T05:45:28.455Z,56.50
2017-05-28T05:47:55.428Z,56.20
2017-05-28T05:50:22.373Z,56.00
2017-05-28T05:52:49.309Z,55.50
2017-05-28T05:55:16.265Z,54.90
2017-05-28T05:57:43.177Z,55.00
2017-05-28T06:00:10.100Z,54.30
2017-05-28T06:02:37.078Z,54.20
2017-05-28T06:05:04.029Z,53.50
2017-05-28T06:07:30.959Z,53.10
2017-05-28T06:09:57.913Z,52.80
2017-05-28T06:12:24.855Z,52.80
2017-05-28T06:14:51.809Z,52.80
2017-05-28T06:17:18.760Z,52.60
2017-05-28T06:19:45.680Z,52.80
2017-05-28T06:22:12.616Z,52.40
2017-05-28T06:24:39.593Z,51.40
2017-05-28T06:27:06.621Z,50.70
2017-05-28T06:29:33.562Z,50.50
2017-05-28T06:32:00.548Z,49.40
2017-05-28T06:34:26.745Z,49.40
2017-05-28T06:36:53.689Z,47.30
2017-05-28T06:39:20.657Z,47.00
2017-05-28T06:41:47.584Z,46.70
2017-05-28T06:44:14.569Z,46.60
2017-05-28T06:46:41.519Z,46.70
2017-05-28T06:49:08.485Z,45.00
2017-05-28T06:51:34.736Z,45.00
2017-05-28T06:54:01.741Z,43.20
2017-05-28T06:56:28.743Z,42.40
2017-05-28T06:58:55.716Z,41.80
2017-05-28T07:01:22.684Z,42.40
2017-05-28T07:03:49.616Z,42.10
2017-05-28T07:06:16.608Z,41.90
2017-05-28T07:08:43.525Z,41.90
2017-05-28T07:11:10.449Z,41.90
2017-05-28T07:13:37.470Z,41.60
2017-05-28T07:16:04.461Z,40.50
2017-05-28T07:18:31.422Z,39.70
2017-05-28T07:20:58.368Z,39.40
2017-05-28T07:23:25.345Z,39.20
2017-05-28T07:25:52.344Z,38.60
2017-05-28T07:28:19.264Z,37.30
2017-05-28T07:30:46.196Z,37.70
2017-05-28T07:33:13.209Z,36.60
2017-05-28T07:35:40.136Z,36.40
2017-05-28T07:38:07.085Z,36.40
2017-05-28T07:40:34.071Z,36.60
2017-05-28T07:43:01.016Z,36.90
2017-05-28T07:45:27.941Z,34.70
2017-05-28T07:47:54.921Z,34.70
2017-05-28T07:50:21.848Z,34.30
2017-05-28T07:52:51.952Z,34.30
2017-05-28T07:55:18.925Z,33.10
2017-05-28T07:57:45.897Z,32.50
2017-05-28T08:00:12.848Z,31.40
2017-05-28T08:02:39.814Z,30.80
2017-05-28T08:05:06.749Z,30.70
2017-05-28T08:07:33.695Z,30.10
2017-05-28T08:10:00.637Z,30.30
2017-05-28T08:12:27.585Z,28.70
2017-05-28T08:14:54.564Z,28.60
2017-05-28T08:17:21.497Z,28.60
2017-05-28T08:19:48.425Z,28.70
2017-05-28T08:22:15.381Z,27.90
2017-05-28T08:24:42.317Z,27.60
2017-05-28T08:27:09.524Z,27.60
2017-05-28T08:29:36.479Z,27.50
2017-05-28T08:32:03.412Z,26.90
2017-05-28T08:34:30.374Z,27.30
2017-05-28T08:36:57.304Z,27.40
2017-05-28T08:39:24.301Z,26.10
2017-05-28T08:41:51.344Z,27.40
2017-05-28T08:44:18.282Z,26.80
2017-05-28T08:46:45.265Z,25.50
2017-05-28T08:49:12.273Z,25.60
2017-05-28T08:51:39.225Z,26.00
2017-05-28T08:54:06.164Z,26.50
2017-05-28T08:56:33.112Z,25.80
2017-05-28T08:59:00.138Z,25.70
2017-05-28T09:01:27.076Z,25.30
2017-05-28T09:03:54.038Z,25.60
2017-05-28T09:06:20.999Z,25.50
2017-05-28T09:08:47.932Z,24.90
2017-05-28T09:11:14.863Z,25.20
2017-05-28T09:13:41.835Z,25.40
2017-05-28T09:16:08.778Z,24.90
2017-05-28T09:18:35.749Z,24.80
2017-05-28T09:21:01.946Z,24.80
2017-05-28T09:23:28.890Z,24.30
2017-05-28T09:25:55.861Z,24.70
2017-05-28T09:28:22.798Z,25.10
2017-05-28T09:30:49.777Z,24.80
2017-05-28T09:33:16.743Z,24.70
2017-05-28T09:35:43.696Z,25.10
2017-05-28T09:38:10.662Z,24.50
2017-05-28T09:40:37.641Z,24.50
2017-05-28T09:43:04.585Z,23.70
2017-05-28T09:45:31.538Z,24.30
2017-05-28T09:47:59.148Z,24.80
2017-05-28T09:50:26.072Z,24.80
2017-05-28T09:52:53.047Z,24.70
2017-05-28T09:55:19.984Z,24.20
2017-05-28T09:57:46.907Z,24.10
2017-05-28T10:00:13.870Z,24.70
2017-05-28T10:02:40.791Z,24.20
2017-05-28T10:05:07.710Z,23.60
2017-05-28T10:07:34.681Z,24.00
2017-05-28T10:10:01.641Z,23.90
2017-05-28T10:12:28.595Z,23.70
2017-05-28T10:14:55.548Z,23.40
2017-05-28T10:17:22.500Z,24.10
2017-05-28T10:19:49.425Z,23.80
2017-05-28T10:22:16.403Z,24.10
2017-05-28T10:24:43.343Z,25.30
2017-05-28T10:27:10.264Z,26.00
2017-05-28T10:29:37.220Z,24.40
2017-05-28T10:32:04.139Z,23.90
2017-05-28T10:34:31.085Z,24.90
2017-05-28T10:36:58.016Z,24.00
2017-05-28T10:39:24.965Z,23.90
2017-05-28T10:41:51.925Z,24.10
2017-05-28T10:44:18.889Z,23.70
2017-05-28T10:46:45.828Z,23.20
2017-05-28T10:49:12.750Z,23.30
2017-05-28T10:51:39.716Z,23.30
2017-05-28T10:54:06.634Z,22.80
2017-05-28T10:56:33.852Z,22.50
2017-05-28T10:59:00.805Z,23.80
2017-05-28T11:01:27.717Z,23.60
2017-05-28T11:03:54.633Z,23.00
2017-05-28T11:06:21.596Z,23.50
2017-05-28T11:08:48.549Z,23.60
2017-05-28T11:11:15.492Z,26.50
2017-05-28T11:13:42.440Z,25.60
2017-05-28T11:16:09.383Z,24.50
2017-05-28T11:18:36.349Z,25.60
2017-05-28T11:21:03.344Z,25.90
2017-05-28T11:23:30.297Z,26.30
2017-05-28T11:25:57.224Z,26.90
2017-05-28T11:28:24.199Z,28.80
2017-05-28T11:30:51.129Z,28.80
2017-05-28T11:33:18.044Z,28.40
2017-05-28T11:35:44.992Z,26.60
2017-05-28T11:38:11.929Z,28.90
2017-05-28T11:40:38.860Z,28.40
2017-05-28T11:43:05.812Z,27.20
2017-05-28T11:45:32.738Z,27.50
2017-05-28T11:47:59.666Z,26.60
2017-05-28T11:50:26.623Z,28.20
2017-05-28T11:52:53.565Z,27.70
2017-05-28T11:55:20.496Z,27.60
2017-05-28T11:57:47.453Z,27.60
2017-05-28T12:00:14.388Z,27.90
2017-05-28T12:02:41.392Z,27.50
2017-05-28T12:05:08.344Z,27.80
2017-05-28T12:07:35.310Z,27.90
2017-05-28T12:10:02.253Z,28.50
2017-05-28T12:12:29.173Z,28.00
2017-05-28T12:14:56.149Z,27.90
2017-05-28T12:17:23.088Z,27.60
2017-05-28T12:19:50.043Z,27.50
2017-05-28T12:22:17.005Z,28.10
2017-05-28T12:24:43.941Z,28.90
2017-05-28T12:27:10.869Z,28.00
2017-05-28T12:29:37.821Z,28.10
2017-05-28T12:32:04.872Z,28.20
2017-05-28T12:34:31.797Z,28.20
2017-05-28T12:36:58.720Z,27.90
2017-05-28T12:39:25.685Z,28.60
2017-05-28T12:41:52.601Z,29.00
2017-05-28T12:44:19.524Z,29.50
2017-05-28T12:46:46.525Z,29.50
2017-05-28T12:49:13.544Z,30.00
2017-05-28T12:51:40.467Z,30.00
2017-05-28T12:54:07.460Z,29.80
2017-05-28T12:56:34.385Z,30.30
2017-05-28T12:59:01.341Z,29.40
2017-05-28T13:01:28.296Z,29.70
2017-05-28T13:03:55.224Z,30.10
2017-05-28T13:06:22.179Z,30.20
2017-05-28T13:08:49.250Z,30.70
2017-05-28T13:11:16.182Z,31.20
2017-05-28T13:13:43.145Z,31.40
2017-05-28T13:16:10.100Z,31.80
2017-05-28T13:18:37.937Z,31.80
2017-05-28T13:21:04.894Z,32.00
2017-05-28T13:23:31.894Z,31.70
2017-05-28T13:25:58.816Z,32.90
2017-05-28T13:28:25.761Z,33.00
2017-05-28T13:30:52.680Z,33.70
2017-05-28T13:33:19.649Z,33.80
2017-05-28T13:35:46.586Z,34.00
2017-05-28T13:38:13.526Z,34.40
2017-05-28T13:40:40.499Z,34.40
2017-05-28T13:43:07.440Z,34.90
2017-05-28T13:45:34.388Z,35.80
2017-05-28T13:48:01.376Z,36.30
2017-05-28T13:50:28.292Z,37.40
2017-05-28T13:52:55.221Z,38.10
2017-05-28T13:55:22.196Z,38.20
2017-05-28T13:57:49.133Z,38.50
2017-05-28T14:00:16.058Z,39.60
2017-05-28T14:02:43.037Z,39.50
2017-05-28T14:05:09.973Z,39.40
2017-05-28T14:07:36.893Z,39.60
2017-05-28T14:10:03.855Z,40.50
2017-05-28T14:12:30.787Z,40.20
2017-05-28T14:14:57.700Z,40.10
2017-05-28T14:17:24.641Z,40.50
2017-05-28T14:19:51.580Z,41.30
2017-05-28T14:22:18.508Z,41.70
2017-05-28T14:24:45.469Z,41.80
2017-05-28T14:27:12.385Z,42.00
2017-05-28T14:29:39.296Z,42.80
2017-05-28T14:32:06.273Z,44.90
2017-05-28T14:34:33.196Z,45.10
2017-05-28T14:37:00.109Z,45.20
2017-05-28T14:39:27.073Z,45.50
2017-05-28T14:41:53.275Z,45.50
2017-05-28T14:44:20.468Z,46.10
2017-05-28T14:46:47.501Z,46.60
2017-05-28T14:49:14.430Z,46.70
2017-05-28T14:51:41.371Z,46.80
2017-05-28T14:54:08.324Z,47.30
2017-05-28T14:56:35.276Z,46.80
2017-05-28T14:59:02.250Z,47.20
2017-05-28T15:01:29.186Z,47.10
2017-05-28T15:03:56.102Z,46.70
2017-05-28T15:06:23.057Z,46.80
2017-05-28T15:08:50.020Z,46.90
2017-05-28T15:11:16.968Z,46.50
2017-05-28T15:13:43.896Z,46.70
2017-05-28T15:16:10.814Z,46.90
2017-05-28T15:18:37.797Z,46.70
2017-05-28T15:21:04.716Z,45.80
2017-05-28T15:23:31.672Z,46.40
2017-05-28T15:25:58.615Z,46.40
2017-05-28T15:28:25.549Z,46.70
2017-05-28T15:30:52.500Z,47.00
2017-05-28T15:33:19.417Z,47.70
2017-05-28T15:35:46.349Z,48.20
2017-05-28T15:38:13.326Z,48.80
2017-05-28T15:40:40.255Z,48.80
2017-05-28T15:43:07.172Z,48.20
2017-05-28T15:45:34.116Z,48.00
2017-05-28T15:48:01.035Z,49.20
2017-05-28T15:50:27.975Z,49.20
2017-05-28T15:52:54.952Z,49.10
2017-05-28T15:55:21.874Z,48.30
2017-05-28T15:57:48.789Z,47.80
2017-05-28T16:00:15.737Z,46.80
2017-05-28T16:02:42.673Z,47.10
2017-05-28T16:05:09.588Z,45.70
2017-05-28T16:07:36.523Z,45.40
2017-05-28T16:10:03.444Z,46.00
2017-05-28T16:12:30.504Z,45.20
2017-05-28T16:14:57.516Z,44.70
2017-05-28T16:17:24.450Z,44.30
2017-05-28T16:19:51.392Z,44.70
2017-05-28T16:22:18.325Z,44.60
2017-05-28T16:24:45.288Z,45.10
2017-05-28T16:27:12.348Z,45.50
2017-05-28T16:29:39.280Z,45.00
2017-05-28T16:32:05.488Z,45.10
2017-05-28T16:34:32.429Z,45.10
2017-05-28T16:36:59.417Z,46.90
2017-05-28T16:39:26.364Z,46.30
2017-05-28T16:41:53.294Z,46.10
2017-05-28T16:44:20.216Z,45.80
2017-05-28T16:46:47.174Z,45.80
2017-05-28T16:49:14.129Z,45.80
2017-05-28T16:51:41.086Z,45.50
2017-05-28T16:54:08.024Z,45.30
2017-05-28T16:56:34.983Z,45.70
2017-05-28T16:59:01.912Z,45.60
2017-05-28T17:01:28.833Z,45.60
2017-05-28T17:03:55.767Z,45.80
2017-05-28T17:06:22.704Z,46.00
2017-05-28T17:08:49.648Z,46.50
2017-05-28T17:11:16.597Z,46.30
2017-05-28T17:13:43.547Z,46.40
2017-05-28T17:16:10.474Z,46.30
2017-05-28T17:18:37.427Z,46.50
2017-05-28T17:21:04.381Z,47.00
2017-05-28T17:23:31.305Z,46.70
2017-05-28T17:25:58.224Z,46.80
2017-05-28T17:28:25.170Z,47.00
2017-05-28T17:30:52.099Z,47.40
2017-05-28T17:33:19.067Z,47.20
2017-05-28T17:35:45.991Z,46.90
2017-05-28T17:38:12.908Z,46.90
2017-05-28T17:40:39.848Z,47.30
2017-05-28T17:43:06.784Z,46.90
2017-05-28T17:45:33.749Z,47.20
2017-05-28T17:48:00.697Z,46.50
2017-05-28T17:50:27.620Z,46.80
2017-05-28T17:52:54.577Z,47.30
2017-05-28T17:55:21.556Z,47.00
2017-05-28T17:57:48.523Z,47.50
2017-05-28T18:00:15.551Z,47.00
2017-05-28T18:02:42.536Z,46.60
2017-05-28T18:05:09.502Z,46.90
2017-05-28T18:07:36.436Z,46.50
2017-05-28T18:10:03.381Z,46.70
2017-05-28T18:12:30.336Z,47.30
2017-05-28T18:14:57.508Z,47.80
2017-05-28T18:17:24.420Z,48.10
2017-05-28T18:19:51.420Z,48.70
2017-05-28T18:22:18.348Z,49.40
2017-05-28T18:24:45.330Z,49.50
2017-05-28T18:27:12.296Z,50.00
2017-05-28T18:29:39.269Z,50.20
2017-05-28T18:32:06.222Z,50.40
2017-05-28T18:34:33.186Z,50.40
2017-05-28T18:37:00.168Z,50.40
2017-05-28T18:39:27.092Z,50.20
2017-05-28T18:41:53.995Z,50.60
2017-05-28T18:44:20.956Z,51.20
2017-05-28T18:46:47.881Z,51.60
2017-05-28T18:49:14.845Z,51.70
2017-05-28T18:51:41.784Z,53.60
2017-05-28T18:54:08.741Z,54.70
2017-05-28T18:56:35.717Z,54.60
2017-05-28T18:59:02.630Z,54.80
2017-05-28T19:01:29.600Z,54.90
2017-05-28T19:03:56.537Z,55.00
2017-05-28T19:06:23.498Z,54.90
2017-05-28T19:08:50.463Z,55.70
2017-05-28T19:11:17.384Z,56.20
2017-05-28T19:13:44.348Z,56.50
2017-05-28T19:16:11.289Z,56.90
2017-05-28T19:18:38.273Z,58.00
2017-05-28T19:21:05.200Z,59.00
2017-05-28T19:23:32.059Z,59.60
2017-05-28T19:25:59.055Z,60.00
2017-05-28T19:28:25.997Z,59.70
2017-05-28T19:30:52.957Z,59.90
2017-05-28T19:33:19.957Z,59.90
2017-05-28T19:35:46.897Z,60.30
2017-05-28T19:38:13.824Z,60.50
2017-05-28T19:40:40.770Z,59.90
2017-05-28T19:43:07.707Z,61.40
2017-05-28T19:45:34.684Z,61.00
2017-05-28T19:48:01.606Z,62.20
2017-05-28T19:50:28.565Z,61.50
2017-05-28T19:52:55.516Z,61.40
2017-05-28T19:55:22.455Z,61.20
2017-05-28T19:57:49.388Z,61.50
2017-05-28T20:00:16.331Z,62.00
2017-05-28T20:02:43.264Z,62.50
2017-05-28T20:05:10.163Z,62.50
2017-05-28T20:07:37.124Z,61.70
2017-05-28T20:10:04.041Z,61.30
2017-05-28T20:12:30.984Z,61.60
2017-05-28T20:14:57.956Z,62.40
2017-05-28T20:17:24.895Z,63.90
2017-05-28T20:19:51.836Z,64.20
2017-05-28T20:22:18.809Z,64.30
2017-05-28T20:24:46.080Z,64.80
2017-05-28T20:27:12.996Z,65.40
2017-05-28T20:29:39.954Z,65.50
2017-05-28T20:32:06.945Z,64.80
2017-05-28T20:34:33.876Z,65.70
2017-05-28T20:37:00.845Z,65.70
2017-05-28T20:39:27.778Z,65.30
2017-05-28T20:41:54.700Z,65.70
2017-05-28T20:44:21.655Z,65.70
2017-05-28T20:46:48.580Z,65.10
2017-05-28T20:49:15.550Z,65.60
2017-05-28T20:51:42.513Z,66.30
2017-05-28T20:54:09.443Z,67.20
2017-05-28T20:56:36.377Z,67.50
2017-05-28T20:59:03.379Z,67.50
2017-05-28T21:01:30.312Z,67.50
2017-05-28T21:03:57.238Z,67.50
2017-05-28T21:06:24.194Z,67.70
2017-05-28T21:08:51.129Z,67.80
2017-05-28T21:11:18.052Z,67.70
2017-05-28T21:13:45.033Z,68.00
2017-05-28T21:16:11.972Z,68.40
2017-05-28T21:18:38.953Z,68.60
2017-05-28T21:21:05.885Z,69.10
2017-05-28T21:23:32.844Z,69.10
2017-05-28T21:25:59.822Z,69.00
2017-05-28T21:28:26.771Z,68.90
2017-05-28T21:30:53.692Z,69.50
2017-05-28T21:33:20.661Z,69.40
2017-05-28T21:35:47.627Z,69.40
2017-05-28T21:38:14.553Z,69.60
2017-05-28T21:40:41.555Z,69.20
2017-05-28T21:43:08.485Z,69.30
2017-05-28T21:45:34.668Z,70.10
2017-05-28T21:48:01.616Z,70.20
2017-05-28T21:50:28.556Z,70.10
2017-05-28T21:52:55.519Z,69.80
2017-05-28T21:55:22.449Z,69.80
2017-05-28T21:57:49.372Z,70.40
2017-05-28T22:00:16.336Z,70.40
2017-05-28T22:02:43.269Z,70.30
2017-05-28T22:05:10.207Z,70.40
2017-05-28T22:07:37.199Z,70.40
2017-05-28T22:10:04.136Z,70.60
2017-05-28T22:12:31.253Z,70.70
2017-05-28T22:14:58.221Z,70.90
2017-05-28T22:17:25.208Z,70.70
2017-05-28T22:19:52.139Z,71.40
2017-05-28T22:22:19.124Z,71.30
2017-05-28T22:24:46.065Z,71.90
2017-05-28T22:27:13.021Z,71.80
2017-05-28T22:29:42.268Z,72.60
2017-05-28T22:32:09.225Z,72.60
2017-05-28T22:34:36.163Z,73.40
2017-05-28T22:37:03.326Z,73.20
2017-05-28T22:39:30.261Z,73.90
2017-05-28T22:41:57.185Z,73.90
2017-05-28T22:44:24.128Z,73.70
2017-05-28T22:46:51.066Z,73.60
2017-05-28T22:49:18.021Z,73.60
2017-05-28T22:51:44.956Z,73.40
2017-05-28T22:54:11.901Z,73.40
2017-05-28T22:56:38.860Z,73.90
2017-05-28T22:59:05.789Z,73.80
2017-05-28T23:01:32.704Z,73.50
2017-05-28T23:03:59.648Z,72.90
2017-05-28T23:06:26.582Z,72.20
2017-05-28T23:08:53.504Z,72.20
2017-05-28T23:11:20.473Z,71.50
2017-05-28T23:13:47.393Z,71.60
2017-05-28T23:16:14.305Z,71.30
2017-05-28T23:18:41.296Z,71.30
2017-05-28T23:21:08.255Z,72.20
2017-05-28T23:23:35.177Z,72.10
2017-05-28T23:26:02.129Z,71.80
2017-05-28T23:28:29.072Z,72.00
2017-05-28T23:30:56.092Z,71.40
2017-05-28T23:33:23.009Z,71.60
2017-05-28T23:35:49.949Z,71.90
2017-05-28T23:38:16.904Z,71.80
2017-05-28T23:40:43.812Z,71.80
2017-05-28T23:43:10.775Z,71.90
2017-05-28T23:45:37.705Z,72.10
2017-05-28T23:48:04.641Z,72.30
2017-05-28T23:50:31.600Z,72.60
2017-05-28T23:52:58.584Z,73.40
2017-05-28T23:55:25.512Z,73.70
2017-05-28T23:57:52.463Z,73.40
